KHTS/HTS METAR and TAF weather

Enter ICAO airport designator
Station Type Date Time Source
KHTS METAR 2022/01/19 18:51 UTC NOAA

KHTS 191851Z 20009KT 10SM OVC050 07/01 A2999 RMK AO2 SLP161 T00670011


Station Type Date Time Source
KHTS Decoded METAR 2022/01/19 18:51 UTC NOAA

TRI-STATE AIRPORT, WV, United States (KHTS) 38-22N 082-33W 254M
Jan 19, 2022 - 01:51 PM EST / 2022.01.19 1851 UTC
Wind: from the SSW (200 degrees) at 10 MPH (9 KT):0
Visibility: 10 mile(s):0
Sky conditions: overcast
Temperature: 44.1 F (6.7 C)
Dew Point: 34.0 F (1.1 C)
Relative Humidity: 67%
Pressure (altimeter): 29.99 in. Hg (1015 hPa)
ob: KHTS 191851Z 20009KT 10SM OVC050 07/01 A2999 RMK AO2 SLP161 T00670011
cycle: 19

Station Type Date Time Source
KHTS TAF 2022/01/19 18:48 UTC NOAA

TAF KHTS 191745Z 1918/2018 22008KT P6SM OVC035 WS020/24040KT
FM192000 21007KT 3SM -RA BR OVC017
FM200400 33007KT 1SM RASN BR OVC006
FM200500 35007KT 1/4SM +SN OVC007
FM201000 35007KT 4SM -SN OVC014
FM201100 36007KT P6SM OVC016

Example: see airport list